Terminal Aerodrome Forecast
Issued by NWS Paducah, KY

Home | Current Version | Previous Version | Graphics & Text | Print | Product List | Glossary On
Versions: 1 2 3 4 5 6 7 8 9 10 11 12 13 14 15 16 17 18 19 20
126
FTUS43 KPAH 160520
TAFEVV
TAF
KEVV 160520Z 1606/1706 31009G15KT P6SM BKN035 OVC130
     FM161100 31011KT P6SM SCT020
     FM161600 31010KT P6SM BKN018
      TEMPO 1620/1624 -SN OVC020
     FM170300 31006KT P6SM BKN030=

USA.gov is the U.S. government's official web portal to all federal, state and local government web resources and services.